Terminal Aerodrome Forecast
Issued by NWS

Home | Current Version | Previous Version | Text Only | Print | Product List | Glossary On
Versions: 1 2 3 4 5 6 7 8 9 10 11 12 13 14 15 16 17
962
FTPA31 PHFO 240853 AAB
TAFHLI
TAF AMD
PHLI 240853Z 2409/2506 02018G25KT P6SM -RA FEW010 BKN015 BKN045
      TEMPO 2409/2413 5SM RA BKN010=

USA.gov is the U.S. government's official web portal to all federal, state and local government web resources and services.